createdAt,value
2019-04-21T00:00:32.483Z,0.00
2019-04-21T00:01:35.633Z,0.00
2019-04-21T00:02:35.770Z,0.00
2019-04-21T00:03:40.205Z,0.00
2019-04-21T00:04:48.341Z,0.00
2019-04-21T00:05:53.312Z,0.00
2019-04-21T00:06:56.877Z,0.00
2019-04-21T00:07:52.788Z,0.00
2019-04-21T00:08:57.955Z,0.00
2019-04-21T00:09:53.749Z,0.00
2019-04-21T00:11:01.130Z,0.00
2019-04-21T00:11:55.617Z,0.00
2019-04-21T00:12:48.941Z,0.00
2019-04-21T00:13:46.737Z,0.00
2019-04-21T00:14:43.833Z,0.00
2019-04-21T00:15:40.742Z,0.00
2019-04-21T00:16:43.196Z,0.00
2019-04-21T00:17:34.719Z,0.00
2019-04-21T00:18:41.800Z,0.00
2019-04-21T00:19:35.400Z,0.00
2019-04-21T00:20:40.860Z,0.00
2019-04-21T00:21:38.495Z,0.00
2019-04-21T00:22:44.346Z,0.00
2019-04-21T00:23:49.610Z,0.00
2019-04-21T00:24:46.218Z,0.00
2019-04-21T00:25:45.817Z,0.00
2019-04-21T00:26:49.313Z,0.00
2019-04-21T00:27:47.822Z,0.00
2019-04-21T00:28:59.406Z,0.00
2019-04-21T00:29:51.983Z,0.00
2019-04-21T00:30:50.550Z,0.00
2019-04-21T00:31:45.501Z,0.00
2019-04-21T00:32:45.063Z,0.00
2019-04-21T00:33:35.634Z,0.00
2019-04-21T00:34:32.208Z,0.00
2019-04-21T00:35:39.151Z,0.00
2019-04-21T00:36:42.757Z,0.00
2019-04-21T00:37:54.604Z,0.00
2019-04-21T00:39:07.055Z,0.00
2019-04-21T00:40:54.088Z,0.00
2019-04-21T00:41:56.337Z,0.00
2019-04-21T00:42:48.877Z,0.00
2019-04-21T00:43:44.731Z,0.00
2019-04-21T00:44:44.364Z,0.00
2019-04-21T00:45:44.659Z,0.00
2019-04-21T00:46:47.729Z,0.00
2019-04-21T00:47:53.142Z,0.00
2019-04-21T00:48:53.959Z,0.00
2019-04-21T00:49:56.666Z,0.00
2019-04-21T00:51:14.997Z,0.00
2019-04-21T00:52:07.048Z,0.00
2019-04-21T00:53:05.746Z,0.00
2019-04-21T00:54:00.980Z,0.00
2019-04-21T00:55:03.936Z,0.00
2019-04-21T00:55:59.416Z,0.00
2019-04-21T00:56:56.237Z,0.00
2019-04-21T00:57:59.510Z,0.00
2019-04-21T00:58:53.740Z,0.00
2019-04-21T00:59:55.763Z,0.00
2019-04-21T01:00:51.279Z,0.00
2019-04-21T01:01:55.467Z,0.00
2019-04-21T01:02:59.393Z,0.00
2019-04-21T01:03:57.915Z,0.00
2019-04-21T01:05:02.093Z,0.00
2019-04-21T01:06:11.443Z,0.00
2019-04-21T01:06:54.406Z,0.00
2019-04-21T01:07:50.375Z,0.00
2019-04-21T01:08:55.712Z,0.00
2019-04-21T01:09:45.276Z,0.00
2019-04-21T01:10:43.933Z,0.00
2019-04-21T01:11:55.376Z,0.00
2019-04-21T01:12:56.118Z,0.00
2019-04-21T01:13:59.577Z,0.00
2019-04-21T01:14:58.167Z,0.00
2019-04-21T01:15:53.034Z,0.00
2019-04-21T01:16:53.090Z,0.00
2019-04-21T01:17:52.146Z,0.00
2019-04-21T01:18:51.705Z,0.00
2019-04-21T01:19:46.633Z,0.00
2019-04-21T01:20:31.588Z,0.00
2019-04-21T01:21:30.526Z,0.00
2019-04-21T01:22:30.594Z,0.00
2019-04-21T01:23:31.728Z,0.00
2019-04-21T01:24:34.453Z,0.00
2019-04-21T01:25:38.258Z,0.00
2019-04-21T01:26:43.795Z,0.00
2019-04-21T01:27:52.230Z,0.00
2019-04-21T01:28:51.126Z,0.00
2019-04-21T01:29:58.346Z,0.00
2019-04-21T01:30:51.789Z,0.00
2019-04-21T01:31:48.475Z,0.00
2019-04-21T01:32:57.594Z,0.00
2019-04-21T01:33:52.134Z,0.00
2019-04-21T01:34:51.368Z,0.00
2019-04-21T01:35:47.994Z,0.00
2019-04-21T01:36:48.615Z,0.00
2019-04-21T01:38:12.135Z,0.00
2019-04-21T01:38:53.779Z,0.00
2019-04-21T01:39:54.522Z,0.00
2019-04-21T01:40:56.768Z,0.00
2019-04-21T01:41:52.324Z,0.00
2019-04-21T01:42:53.934Z,0.00
2019-04-21T01:43:50.288Z,0.00
2019-04-21T01:44:52.313Z,0.00
2019-04-21T01:45:48.663Z,0.00
2019-04-21T01:46:48.653Z,0.00
2019-04-21T01:47:48.958Z,0.00
2019-04-21T01:48:42.831Z,0.00
2019-04-21T01:49:43.014Z,0.00
2019-04-21T01:50:47.043Z,0.00
2019-04-21T01:52:03.255Z,0.00
2019-04-21T01:53:12.667Z,0.00
2019-04-21T01:54:01.317Z,0.00
2019-04-21T01:54:55.825Z,0.00
2019-04-21T01:55:54.220Z,0.00
2019-04-21T01:56:51.415Z,0.00
2019-04-21T01:57:49.426Z,0.00
2019-04-21T01:58:42.809Z,0.00
2019-04-21T01:59:42.564Z,0.00
2019-04-21T02:00:43.887Z,0.00
2019-04-21T02:01:56.363Z,0.00
2019-04-21T02:02:57.793Z,0.00
2019-04-21T02:03:56.845Z,0.00
2019-04-21T02:05:01.199Z,0.00
2019-04-21T02:06:00.025Z,0.00
2019-04-21T02:06:50.226Z,0.00
2019-04-21T02:07:50.127Z,0.00
2019-04-21T02:08:49.088Z,0.00
2019-04-21T02:09:50.923Z,0.00
2019-04-21T02:10:57.528Z,0.00
2019-04-21T02:11:55.084Z,0.00
2019-04-21T02:12:52.546Z,0.00
2019-04-21T02:13:57.695Z,0.00
2019-04-21T02:14:58.202Z,0.00
2019-04-21T02:15:55.816Z,0.00
2019-04-21T02:16:52.057Z,0.00
2019-04-21T02:17:53.790Z,0.00
2019-04-21T02:18:52.926Z,0.00
2019-04-21T02:19:48.056Z,0.00
2019-04-21T02:20:43.569Z,0.00
2019-04-21T02:21:43.654Z,0.00
2019-04-21T02:23:07.358Z,0.00
2019-04-21T02:24:58.388Z,0.00
2019-04-21T02:25:51.075Z,0.00
2019-04-21T02:26:54.294Z,0.00
2019-04-21T02:28:01.249Z,0.00
2019-04-21T02:28:55.583Z,0.00
2019-04-21T02:29:55.978Z,0.00
2019-04-21T02:31:05.336Z,0.00
2019-04-21T02:32:01.971Z,0.00
2019-04-21T02:34:00.281Z,0.00
2019-04-21T02:35:12.346Z,0.00
2019-04-21T02:36:15.402Z,0.00
2019-04-21T02:37:17.206Z,0.00
2019-04-21T02:39:12.298Z,0.00
2019-04-21T02:40:04.218Z,0.00
2019-04-21T02:44:59.896Z,0.00
2019-04-21T02:46:10.520Z,0.00
2019-04-21T02:48:03.976Z,0.00
2019-04-21T02:49:06.037Z,0.00
2019-04-21T02:50:22.333Z,0.00
2019-04-21T02:51:00.332Z,0.00
2019-04-21T02:52:01.227Z,0.00
2019-04-21T02:53:09.555Z,0.00
2019-04-21T02:54:38.486Z,0.00
2019-04-21T02:55:02.285Z,0.00
2019-04-21T02:56:00.665Z,0.00
2019-04-21T02:57:08.560Z,0.00
2019-04-21T02:59:02.425Z,0.00
2019-04-21T03:01:03.261Z,0.00
2019-04-21T03:02:03.587Z,0.00
2019-04-21T03:03:58.801Z,0.00
2019-04-21T03:05:01.790Z,0.00
2019-04-21T03:06:02.634Z,0.00
2019-04-21T03:07:11.430Z,0.00
2019-04-21T03:09:15.970Z,0.00
2019-04-21T03:10:04.834Z,0.00
2019-04-21T03:13:05.006Z,0.00
2019-04-21T03:14:05.544Z,0.00
2019-04-21T03:15:03.681Z,0.00
2019-04-21T03:16:13.711Z,0.00
2019-04-21T03:16:57.698Z,0.00
2019-04-21T03:18:06.523Z,0.00
2019-04-21T03:19:04.916Z,0.00
2019-04-21T03:21:09.331Z,0.00
2019-04-21T03:22:07.132Z,0.00
2019-04-21T03:23:15.790Z,0.00
2019-04-21T03:24:01.225Z,0.00
2019-04-21T03:25:23.462Z,0.00
2019-04-21T03:27:12.121Z,0.00
2019-04-21T03:29:03.630Z,0.00
2019-04-21T03:29:59.312Z,0.00
2019-04-21T03:31:19.699Z,0.00
2019-04-21T03:32:39.024Z,0.00
2019-04-21T03:33:45.452Z,0.00
2019-04-21T03:35:37.884Z,0.00
2019-04-21T03:38:59.150Z,0.00
2019-04-21T03:39:59.837Z,0.00
2019-04-21T03:40:57.342Z,0.00
2019-04-21T03:42:07.051Z,4.00
2019-04-21T03:43:14.489Z,4.00
2019-04-21T03:43:58.922Z,0.00
2019-04-21T03:45:03.724Z,4.00
2019-04-21T03:46:01.844Z,4.00
2019-04-21T03:48:05.110Z,8.00
2019-04-21T03:49:02.233Z,4.00
2019-04-21T03:50:05.035Z,8.00
2019-04-21T03:50:58.921Z,8.00
2019-04-21T03:52:03.208Z,8.00
2019-04-21T03:53:02.749Z,12.00
2019-04-21T03:54:00.677Z,12.00
2019-04-21T03:55:25.210Z,16.00
2019-04-21T03:57:11.267Z,24.00
2019-04-21T04:00:08.921Z,36.00
2019-04-21T04:03:28.222Z,56.00
2019-04-21T04:05:05.667Z,64.00
2019-04-21T04:05:08.961Z,76.00
2019-04-21T04:07:28.863Z,96.00
2019-04-21T04:08:28.683Z,112.00
2019-04-21T04:09:19.371Z,128.00
2019-04-21T04:11:19.637Z,168.00
2019-04-21T04:11:54.724Z,184.00
2019-04-21T04:13:00.817Z,212.00
2019-04-21T04:14:05.457Z,232.00
2019-04-21T04:17:07.535Z,320.00
2019-04-21T04:17:54.270Z,352.00
2019-04-21T04:18:57.994Z,388.00
2019-04-21T04:21:03.050Z,460.00
2019-04-21T04:22:04.338Z,500.00
2019-04-21T04:23:02.929Z,540.00
2019-04-21T04:24:04.027Z,584.00
2019-04-21T04:26:02.325Z,676.00
2019-04-21T04:28:09.920Z,780.00
2019-04-21T04:29:05.959Z,832.00
2019-04-21T04:29:59.054Z,884.00
2019-04-21T04:31:06.512Z,940.00
2019-04-21T04:31:56.940Z,1000.00
2019-04-21T04:32:57.392Z,1056.00
2019-04-21T04:35:03.869Z,1176.00
2019-04-21T04:36:13.095Z,1236.00
2019-04-21T04:37:06.914Z,1296.00
2019-04-21T04:38:00.939Z,1356.00
2019-04-21T04:39:14.465Z,1420.00
2019-04-21T04:40:13.384Z,1480.00
2019-04-21T04:41:06.219Z,1544.00
2019-04-21T04:42:18.225Z,1608.00
2019-04-21T04:43:08.325Z,1668.00
2019-04-21T04:44:07.083Z,1732.00
2019-04-21T04:45:58.976Z,1864.00
2019-04-21T04:47:04.557Z,1928.00
2019-04-21T04:47:59.896Z,1992.00
2019-04-21T04:49:06.073Z,2056.00
2019-04-21T04:49:51.954Z,2120.00
2019-04-21T04:51:01.944Z,2180.00
2019-04-21T04:52:51.253Z,2304.00
2019-04-21T04:54:21.811Z,2372.00
2019-04-21T04:57:08.498Z,2552.00
2019-04-21T04:59:22.653Z,2676.00
2019-04-21T05:01:08.213Z,2796.00
2019-04-21T05:02:56.305Z,2916.00
2019-04-21T05:05:07.064Z,3032.00
2019-04-21T05:06:10.058Z,3092.00
2019-04-21T05:06:58.443Z,3152.00
2019-04-21T05:08:23.970Z,3212.00
2019-04-21T05:11:07.690Z,3396.00
2019-04-21T05:11:55.878Z,3464.00
2019-04-21T05:12:58.650Z,3528.00
2019-04-21T05:15:06.427Z,3668.00
2019-04-21T05:16:03.528Z,3736.00
2019-04-21T05:17:57.717Z,3852.00
2019-04-21T05:19:10.152Z,3908.00
2019-04-21T05:21:07.472Z,4016.00
2019-04-21T05:21:58.793Z,4072.00
2019-04-21T05:22:53.897Z,4124.00
2019-04-21T05:23:48.494Z,4176.00
2019-04-21T05:24:48.309Z,4228.00
2019-04-21T05:25:41.632Z,4280.00
2019-04-21T05:26:49.078Z,4328.00
2019-04-21T05:27:43.320Z,4380.00
2019-04-21T05:28:40.691Z,4428.00
2019-04-21T05:29:55.535Z,4480.00
2019-04-21T05:31:00.495Z,4532.00
2019-04-21T05:31:58.447Z,4584.00
2019-04-21T05:32:52.780Z,4628.00
2019-04-21T05:33:54.305Z,4672.00
2019-04-21T05:34:50.793Z,4720.00
2019-04-21T05:35:50.699Z,4764.00
2019-04-21T05:36:53.927Z,4812.00
2019-04-21T05:37:47.612Z,4856.00
2019-04-21T05:38:47.755Z,4908.00
2019-04-21T05:39:45.163Z,4956.00
2019-04-21T05:40:40.190Z,5000.00
2019-04-21T05:41:41.013Z,5048.00
2019-04-21T05:42:45.893Z,5096.00
2019-04-21T05:43:54.579Z,5136.00
2019-04-21T05:44:58.138Z,5164.00
2019-04-21T05:45:56.748Z,5200.00
2019-04-21T05:47:05.542Z,5236.00
2019-04-21T05:47:57.897Z,5252.00
2019-04-21T05:48:52.174Z,5248.00
2019-04-21T05:49:51.285Z,5232.00
2019-04-21T05:50:52.176Z,5228.00
2019-04-21T05:51:44.280Z,5248.00
2019-04-21T05:52:44.970Z,5276.00
2019-04-21T05:53:49.233Z,5316.00
2019-04-21T05:54:57.427Z,5368.00
2019-04-21T05:55:56.922Z,5420.00
2019-04-21T05:56:49.837Z,5480.00
2019-04-21T05:57:48.120Z,5548.00
2019-04-21T05:58:54.079Z,5620.00
2019-04-21T05:59:51.595Z,5692.00
2019-04-21T06:02:02.575Z,5828.00
2019-04-21T06:02:55.225Z,5908.00
2019-04-21T06:07:02.090Z,8096.00
2019-04-21T06:07:48.212Z,10208.00
2019-04-21T06:08:48.120Z,11792.00
2019-04-21T06:09:55.418Z,11956.00
2019-04-21T06:10:58.818Z,12196.00
2019-04-21T06:11:51.601Z,12596.00
2019-04-21T06:12:51.060Z,13148.00
2019-04-21T06:13:55.525Z,13536.00
2019-04-21T06:14:54.561Z,13584.00
2019-04-21T06:15:57.956Z,13628.00
2019-04-21T06:16:55.560Z,14048.00
2019-04-21T06:17:49.271Z,14540.00
2019-04-21T06:18:53.157Z,14308.00
2019-04-21T06:19:56.937Z,14040.00
2019-04-21T06:20:54.700Z,14004.00
2019-04-21T06:21:50.842Z,14668.00
2019-04-21T06:22:52.020Z,15552.00
2019-04-21T06:23:49.715Z,16224.00
2019-04-21T06:25:15.237Z,16608.00
2019-04-21T06:26:18.036Z,16416.00
2019-04-21T06:27:00.358Z,17120.00
2019-04-21T06:27:52.192Z,17664.00
2019-04-21T06:28:51.815Z,17696.00
2019-04-21T06:29:52.812Z,17728.00
2019-04-21T06:30:59.446Z,18144.00
2019-04-21T06:32:17.341Z,18400.00
2019-04-21T06:32:50.872Z,18240.00
2019-04-21T06:34:04.930Z,18816.00
2019-04-21T06:35:07.347Z,19680.00
2019-04-21T06:36:11.412Z,19360.00
2019-04-21T06:37:49.422Z,19712.00
2019-04-21T06:39:00.035Z,19552.00
2019-04-21T06:40:01.894Z,20416.00
2019-04-21T06:40:55.995Z,21440.00
2019-04-21T06:41:49.137Z,22272.00
2019-04-21T06:43:07.932Z,22176.00
2019-04-21T06:43:56.303Z,22336.00
2019-04-21T06:46:12.324Z,23168.00
2019-04-21T06:47:05.950Z,23104.00
2019-04-21T06:47:50.168Z,23232.00
2019-04-21T06:48:55.728Z,23456.00
2019-04-21T06:49:50.970Z,24096.00
2019-04-21T06:50:52.950Z,24640.00
2019-04-21T06:51:48.352Z,24480.00
2019-04-21T06:53:59.584Z,24640.00
2019-04-21T06:54:56.032Z,24096.00
2019-04-21T06:55:57.424Z,24736.00
2019-04-21T06:57:04.873Z,25600.00
2019-04-21T06:57:55.802Z,25760.00
2019-04-21T06:58:51.564Z,26336.00
2019-04-21T06:59:43.103Z,26912.00
2019-04-21T07:00:47.668Z,26816.00
2019-04-21T07:01:52.720Z,28256.00
2019-04-21T07:02:52.831Z,27680.00
2019-04-21T07:04:03.097Z,28000.00
2019-04-21T07:06:00.400Z,29440.00
2019-04-21T07:08:08.403Z,31104.00
2019-04-21T07:09:52.879Z,32320.00
2019-04-21T07:10:52.084Z,33216.00
2019-04-21T07:11:52.647Z,33408.00
2019-04-21T07:12:45.001Z,33632.00
2019-04-21T07:13:44.589Z,35168.00
2019-04-21T07:14:51.029Z,35904.00
2019-04-21T07:15:50.139Z,35776.00
2019-04-21T07:16:59.585Z,37120.00
2019-04-21T07:17:49.987Z,38176.00
2019-04-21T07:19:00.060Z,40160.00
2019-04-21T07:20:07.409Z,40288.00
2019-04-21T07:20:50.446Z,38432.00
2019-04-21T07:21:54.336Z,39200.00
2019-04-21T07:22:50.986Z,39936.00
2019-04-21T07:23:53.822Z,39328.00
2019-04-21T07:24:48.209Z,37952.00
2019-04-21T07:25:51.969Z,36448.00
2019-04-21T07:26:52.681Z,38272.00
2019-04-21T07:27:52.045Z,39520.00
2019-04-21T07:28:56.964Z,38240.00
2019-04-21T07:29:56.660Z,36640.00
2019-04-21T07:30:54.605Z,35456.00
2019-04-21T07:32:00.284Z,34848.00
2019-04-21T07:32:58.016Z,35904.00
2019-04-21T07:34:51.173Z,37600.00
2019-04-21T07:35:51.753Z,36864.00
2019-04-21T07:37:52.300Z,35584.00
2019-04-21T07:38:45.457Z,37024.00
2019-04-21T07:39:45.181Z,37440.00
2019-04-21T07:40:42.902Z,38496.00
2019-04-21T07:41:46.932Z,39552.00
2019-04-21T07:42:47.039Z,39424.00
2019-04-21T07:43:47.280Z,40064.00
2019-04-21T07:44:44.728Z,40768.00
2019-04-21T07:45:40.562Z,42176.00
2019-04-21T07:46:41.720Z,40768.00
2019-04-21T07:47:53.467Z,41632.00
2019-04-21T07:48:52.032Z,43392.00
2019-04-21T07:49:53.168Z,43744.00
2019-04-21T07:50:48.799Z,44736.00
2019-04-21T07:51:50.997Z,43840.00
2019-04-21T07:52:53.400Z,43552.00
2019-04-21T07:53:55.973Z,46880.00
2019-04-21T07:54:57.200Z,50528.00
2019-04-21T07:56:33.204Z,48640.00
2019-04-21T07:58:02.717Z,49440.00
2019-04-21T07:58:54.199Z,50752.00
2019-04-21T08:00:01.204Z,52384.00
2019-04-21T08:00:51.170Z,52672.00
2019-04-21T08:01:50.723Z,51872.00
2019-04-21T08:02:52.386Z,51968.00
2019-04-21T08:03:45.389Z,52448.00
2019-04-21T08:05:07.659Z,52896.00
2019-04-21T08:05:53.012Z,53184.00
2019-04-21T08:06:49.429Z,52608.00
2019-04-21T08:07:51.886Z,51904.00
2019-04-21T08:08:51.072Z,58048.00
2019-04-21T08:09:47.263Z,57184.00
2019-04-21T08:10:47.142Z,54592.00
2019-04-21T08:11:41.614Z,52064.00
2019-04-21T08:12:43.205Z,55360.00
2019-04-21T08:13:48.535Z,54336.00
2019-04-21T08:14:55.863Z,53728.00
2019-04-21T08:15:51.279Z,56128.00
2019-04-21T08:16:52.450Z,56832.00
2019-04-21T08:17:47.180Z,57152.00
2019-04-21T08:18:47.432Z,58624.00
2019-04-21T08:19:43.032Z,57600.00
2019-04-21T08:20:41.910Z,59424.00
2019-04-21T08:21:54.625Z,61344.00
2019-04-21T08:24:00.205Z,60640.00
2019-04-21T08:24:50.329Z,59680.00
2019-04-21T08:25:56.235Z,60864.00
2019-04-21T08:26:51.007Z,59936.00
2019-04-21T08:27:55.467Z,57760.00
2019-04-21T08:28:49.451Z,60896.00
2019-04-21T08:29:46.230Z,61728.00
2019-04-21T08:30:44.402Z,60352.00
2019-04-21T08:34:54.881Z,66784.00
2019-04-21T08:36:44.730Z,66112.00
2019-04-21T08:37:42.967Z,64864.00
2019-04-21T08:38:51.541Z,64480.00
2019-04-21T08:39:58.098Z,65088.00
2019-04-21T08:41:04.893Z,65248.00
2019-04-21T08:41:44.040Z,64768.00
2019-04-21T08:42:47.751Z,65440.00
2019-04-21T08:43:44.676Z,67360.00
2019-04-21T08:44:46.879Z,65504.00
2019-04-21T08:45:48.223Z,65440.00
2019-04-21T08:46:48.079Z,65696.00
2019-04-21T08:47:45.763Z,66880.00
2019-04-21T08:48:52.592Z,67200.00
2019-04-21T08:49:48.049Z,68480.00
2019-04-21T08:50:44.149Z,67840.00
2019-04-21T08:51:50.475Z,69216.00
2019-04-21T08:52:50.679Z,71680.00
2019-04-21T08:53:53.558Z,71872.00
2019-04-21T08:54:52.123Z,71680.00
2019-04-21T08:55:49.313Z,72768.00
2019-04-21T08:56:49.605Z,72288.00
2019-04-21T08:57:52.667Z,73184.00
2019-04-21T08:58:52.162Z,73152.00
2019-04-21T09:00:51.420Z,73632.00
2019-04-21T09:01:50.781Z,75104.00
2019-04-21T09:02:48.655Z,75840.00
2019-04-21T09:03:53.936Z,74208.00
2019-04-21T09:04:50.715Z,75456.00
2019-04-21T09:05:45.648Z,77376.00
2019-04-21T09:07:49.308Z,77504.00
2019-04-21T09:08:46.155Z,77152.00
2019-04-21T09:09:47.506Z,75456.00
2019-04-21T09:10:47.385Z,75104.00
2019-04-21T09:11:49.886Z,74880.00
2019-04-21T09:12:49.938Z,74656.00
2019-04-21T09:13:44.582Z,76064.00
2019-04-21T09:14:41.520Z,79200.00
2019-04-21T09:15:41.903Z,79552.00
2019-04-21T09:16:44.006Z,78240.00
2019-04-21T09:17:37.743Z,78144.00
2019-04-21T09:18:42.100Z,77376.00
2019-04-21T09:19:51.461Z,77760.00
2019-04-21T09:22:41.305Z,79072.00
2019-04-21T09:23:45.232Z,80960.00
2019-04-21T09:24:45.660Z,79488.00
2019-04-21T09:25:46.465Z,77600.00
2019-04-21T09:26:41.329Z,73728.00
2019-04-21T09:27:41.950Z,78848.00
2019-04-21T09:28:39.592Z,81056.00
2019-04-21T09:29:36.079Z,80000.00
2019-04-21T09:30:26.430Z,80768.00
2019-04-21T09:31:30.957Z,80736.00
2019-04-21T09:32:29.398Z,84416.00
2019-04-21T09:33:34.564Z,84576.00
2019-04-21T09:34:33.192Z,83552.00
2019-04-21T09:35:27.073Z,84672.00
2019-04-21T09:36:33.640Z,84544.00
2019-04-21T09:37:39.300Z,86144.00
2019-04-21T09:38:33.838Z,87200.00
2019-04-21T09:39:29.501Z,87936.00
2019-04-21T09:40:32.724Z,86624.00
2019-04-21T09:41:27.871Z,87072.00
2019-04-21T09:42:32.324Z,86560.00
2019-04-21T09:43:35.693Z,86720.00
2019-04-21T09:44:31.451Z,87712.00
2019-04-21T09:45:26.544Z,88896.00
2019-04-21T09:46:25.422Z,90720.00
2019-04-21T09:47:35.140Z,89504.00
2019-04-21T09:48:26.728Z,89888.00
2019-04-21T09:49:27.899Z,91232.00
2019-04-21T09:50:26.579Z,92032.00
2019-04-21T09:51:25.869Z,93344.00
2019-04-21T09:52:30.137Z,92608.00
2019-04-21T09:53:32.823Z,95648.00
2019-04-21T09:54:31.141Z,95072.00
2019-04-21T09:56:45.652Z,93856.00
2019-04-21T09:57:43.115Z,95936.00
2019-04-21T09:58:40.839Z,94784.00
2019-04-21T09:59:40.105Z,95360.00
2019-04-21T10:00:45.740Z,94304.00
2019-04-21T10:01:49.069Z,95488.00
2019-04-21T10:02:42.912Z,94464.00
2019-04-21T10:03:41.226Z,94496.00
2019-04-21T10:04:35.794Z,97696.00
2019-04-21T10:05:36.012Z,98816.00
2019-04-21T10:06:35.028Z,97440.00
2019-04-21T10:07:39.122Z,94720.00
2019-04-21T10:08:36.402Z,94592.00
2019-04-21T10:09:35.565Z,98368.00
2019-04-21T10:10:34.731Z,98784.00
2019-04-21T10:11:35.529Z,98944.00
2019-04-21T10:12:35.083Z,96800.00
2019-04-21T10:13:36.086Z,95520.00
2019-04-21T10:14:34.694Z,96192.00
2019-04-21T10:15:35.518Z,98816.00
2019-04-21T10:16:34.663Z,98464.00
2019-04-21T10:17:35.033Z,98304.00
2019-04-21T10:18:35.760Z,98272.00
2019-04-21T10:19:34.646Z,99168.00
2019-04-21T10:20:34.625Z,102240.00
2019-04-21T10:21:35.977Z,102688.00
2019-04-21T10:22:35.080Z,102144.00
2019-04-21T10:23:35.794Z,98496.00
2019-04-21T10:24:34.591Z,98048.00
2019-04-21T10:25:34.625Z,99776.00
2019-04-21T10:26:35.581Z,100896.00
2019-04-21T10:27:34.915Z,98976.00
2019-04-21T10:28:35.116Z,101408.00
2019-04-21T10:29:35.808Z,100128.00
2019-04-21T10:30:36.405Z,101920.00
2019-04-21T10:31:34.680Z,103232.00
2019-04-21T10:32:34.590Z,98624.00
2019-04-21T10:33:34.592Z,100512.00
2019-04-21T10:34:34.846Z,96096.00
2019-04-21T10:35:35.259Z,101952.00
2019-04-21T10:36:35.107Z,100096.00
2019-04-21T10:37:45.537Z,97184.00
2019-04-21T10:38:40.795Z,102752.00
2019-04-21T10:39:35.719Z,102368.00
2019-04-21T10:40:37.149Z,103776.00
2019-04-21T10:41:35.123Z,108320.00
2019-04-21T10:42:35.459Z,108032.00
2019-04-21T10:43:35.605Z,106816.00
2019-04-21T10:44:34.720Z,108992.00
2019-04-21T10:45:34.905Z,109088.00
2019-04-21T10:46:35.023Z,108096.00
2019-04-21T10:47:34.642Z,108320.00
2019-04-21T10:48:35.994Z,106432.00
2019-04-21T10:49:34.936Z,106400.00
2019-04-21T10:50:34.830Z,109152.00
2019-04-21T10:51:35.173Z,106208.00
2019-04-21T10:52:35.878Z,105920.00
2019-04-21T10:53:34.543Z,105728.00
2019-04-21T10:54:49.387Z,101312.00
2019-04-21T10:55:50.551Z,105152.00
2019-04-21T10:56:41.125Z,103232.00
2019-04-21T10:57:35.288Z,102720.00
2019-04-21T10:58:34.270Z,104736.00
2019-04-21T10:59:35.319Z,103200.00
2019-04-21T11:00:34.462Z,107168.00
2019-04-21T11:01:34.733Z,105824.00
2019-04-21T11:02:34.862Z,106272.00
2019-04-21T11:03:35.257Z,105856.00
2019-04-21T11:04:37.385Z,108960.00
2019-04-21T11:05:34.522Z,110240.00
2019-04-21T11:06:34.738Z,108064.00
2019-04-21T11:07:45.409Z,107040.00
2019-04-21T11:08:39.606Z,106592.00
2019-04-21T11:09:36.126Z,105536.00
2019-04-21T11:10:34.134Z,108096.00
2019-04-21T11:11:34.238Z,106784.00
2019-04-21T11:12:36.498Z,107104.00
2019-04-21T11:13:34.756Z,106432.00
2019-04-21T11:14:35.488Z,106144.00
2019-04-21T11:15:35.043Z,104736.00
2019-04-21T11:16:35.175Z,103968.00
2019-04-21T11:17:34.234Z,102688.00
2019-04-21T11:18:34.095Z,102656.00
2019-04-21T11:19:34.877Z,101728.00
2019-04-21T11:20:35.121Z,102688.00
2019-04-21T11:21:34.644Z,102112.00
2019-04-21T11:22:35.272Z,102880.00
2019-04-21T11:23:35.224Z,101856.00
2019-04-21T11:24:35.093Z,103840.00
2019-04-21T11:25:33.985Z,105088.00
2019-04-21T11:26:33.968Z,104832.00
2019-04-21T11:27:35.115Z,106016.00
2019-04-21T11:28:34.610Z,107584.00
2019-04-21T11:29:35.057Z,108576.00
2019-04-21T11:30:33.930Z,107840.00
2019-04-21T11:31:33.982Z,103840.00
2019-04-21T11:32:35.060Z,99520.00
2019-04-21T11:33:35.469Z,98144.00
2019-04-21T11:34:33.893Z,97760.00
2019-04-21T11:35:35.145Z,102528.00
2019-04-21T11:36:35.020Z,105728.00
2019-04-21T11:37:34.613Z,106176.00
2019-04-21T11:38:51.336Z,105536.00
2019-04-21T11:39:44.603Z,106912.00
2019-04-21T11:40:36.027Z,105344.00
2019-04-21T11:41:34.120Z,103712.00
2019-04-21T11:42:33.804Z,99904.00
2019-04-21T11:43:34.979Z,99264.00
2019-04-21T11:44:35.201Z,100480.00
2019-04-21T11:45:34.711Z,102176.00
2019-04-21T11:46:34.248Z,105728.00
2019-04-21T11:47:34.245Z,106176.00
2019-04-21T11:48:34.518Z,104512.00
2019-04-21T11:49:34.849Z,105344.00
2019-04-21T11:50:34.990Z,104960.00
2019-04-21T11:51:33.717Z,106080.00
2019-04-21T11:52:34.723Z,106240.00
2019-04-21T11:53:34.837Z,107488.00
2019-04-21T11:54:34.963Z,103840.00
2019-04-21T11:55:38.259Z,99584.00
2019-04-21T11:56:34.841Z,95200.00
2019-04-21T11:57:39.241Z,93056.00
2019-04-21T11:58:35.969Z,93280.00
2019-04-21T11:59:33.653Z,101344.00
2019-04-21T12:00:33.654Z,102112.00
2019-04-21T12:01:33.825Z,102336.00
2019-04-21T12:02:33.699Z,102496.00
2019-04-21T12:03:33.719Z,98336.00
2019-04-21T12:04:33.717Z,100160.00
2019-04-21T12:05:33.580Z,99904.00
2019-04-21T12:06:39.608Z,105088.00
2019-04-21T12:07:35.359Z,103232.00
2019-04-21T12:08:40.393Z,104256.00
2019-04-21T12:09:35.417Z,102720.00
2019-04-21T12:10:33.532Z,97248.00
2019-04-21T12:11:33.717Z,96544.00
2019-04-21T12:12:33.504Z,94528.00
2019-04-21T12:13:34.231Z,95584.00
2019-04-21T12:14:34.203Z,98720.00
2019-04-21T12:15:34.580Z,97344.00
2019-04-21T12:16:34.984Z,98528.00
2019-04-21T12:17:34.139Z,98592.00
2019-04-21T12:18:34.008Z,99904.00
2019-04-21T12:19:34.613Z,100320.00
2019-04-21T12:20:33.493Z,101568.00
2019-04-21T12:21:47.904Z,101536.00
2019-04-21T12:22:35.736Z,100800.00
2019-04-21T12:23:34.375Z,104768.00
2019-04-21T12:24:34.607Z,102976.00
2019-04-21T12:25:33.384Z,103104.00
2019-04-21T12:26:33.858Z,104544.00
2019-04-21T12:27:33.969Z,105600.00
2019-04-21T12:28:34.252Z,105632.00
2019-04-21T12:29:33.587Z,105504.00
2019-04-21T12:30:33.637Z,107456.00
2019-04-21T12:31:33.744Z,106208.00
2019-04-21T12:32:33.833Z,105344.00
2019-04-21T12:33:34.134Z,106560.00
2019-04-21T12:34:34.273Z,103552.00
2019-04-21T12:35:33.571Z,104384.00
2019-04-21T12:36:33.843Z,106336.00
2019-04-21T12:37:33.262Z,106272.00
2019-04-21T12:38:42.666Z,104512.00
2019-04-21T12:39:34.776Z,104352.00
2019-04-21T12:40:34.593Z,101696.00
2019-04-21T12:41:33.223Z,104096.00
2019-04-21T12:42:34.462Z,100352.00
2019-04-21T12:43:33.192Z,102912.00
2019-04-21T12:44:33.596Z,102112.00
2019-04-21T12:45:33.699Z,103776.00
2019-04-21T12:46:33.958Z,101952.00
2019-04-21T12:47:34.100Z,102048.00
2019-04-21T12:48:33.803Z,103488.00
2019-04-21T12:49:33.845Z,104320.00
2019-04-21T12:50:34.068Z,105696.00
2019-04-21T12:51:33.730Z,104160.00
2019-04-21T12:52:33.597Z,103072.00
2019-04-21T12:53:34.027Z,99744.00
2019-04-21T12:54:33.381Z,101792.00
2019-04-21T12:55:38.396Z,100160.00
2019-04-21T12:56:34.056Z,101600.00
2019-04-21T12:57:33.331Z,102464.00
2019-04-21T12:58:33.218Z,102400.00
2019-04-21T12:59:34.557Z,100224.00
2019-04-21T13:00:33.361Z,99648.00
2019-04-21T13:01:33.018Z,97088.00
2019-04-21T13:02:33.821Z,96640.00
2019-04-21T13:03:34.086Z,100352.00
2019-04-21T13:04:33.555Z,98656.00
2019-04-21T13:05:33.788Z,102016.00
2019-04-21T13:06:33.872Z,100896.00
2019-04-21T13:07:33.208Z,101696.00
2019-04-21T13:08:45.551Z,103488.00
2019-04-21T13:09:35.690Z,101024.00
2019-04-21T13:10:33.966Z,102752.00
2019-04-21T13:11:33.204Z,101344.00
2019-04-21T13:12:33.259Z,99552.00
2019-04-21T13:13:32.902Z,101504.00
2019-04-21T13:14:33.737Z,101216.00
2019-04-21T13:15:33.653Z,99360.00
2019-04-21T13:16:41.164Z,100864.00
2019-04-21T13:17:47.828Z,100608.00
2019-04-21T13:18:33.259Z,100320.00
2019-04-21T13:19:33.515Z,100704.00
2019-04-21T13:20:33.982Z,96640.00